sensor_id;sensor_type;location;lat;lon;timestamp;temperature;humidity
6988;DHT22;3534;49.960;8.018;2022-09-21T00:00:26;12.20;99.90
6988;DHT22;3534;49.960;8.018;2022-09-21T00:02:55;12.10;99.90
6988;DHT22;3534;49.960;8.018;2022-09-21T00:05:22;12.20;99.90
6988;DHT22;3534;49.960;8.018;2022-09-21T00:07:49;12.10;99.90
6988;DHT22;3534;49.960;8.018;2022-09-21T00:10:16;12.10;99.90
6988;DHT22;3534;49.960;8.018;2022-09-21T00:12:44;12.10;99.90
6988;DHT22;3534;49.960;8.018;2022-09-21T00:15:13;12.10;99.90
6988;DHT22;3534;49.960;8.018;2022-09-21T00:17:42;12.00;99.90
6988;DHT22;3534;49.960;8.018;2022-09-21T00:20:09;12.00;99.90
6988;DHT22;3534;49.960;8.018;2022-09-21T00:22:36;12.00;99.90
6988;DHT22;3534;49.960;8.018;2022-09-21T00:25:03;12.00;99.90
6988;DHT22;3534;49.960;8.018;2022-09-21T00:27:30;12.00;99.90
6988;DHT22;3534;49.960;8.018;2022-09-21T00:29:59;12.00;99.90
6988;DHT22;3534;49.960;8.018;2022-09-21T00:32:27;11.90;99.90
6988;DHT22;3534;49.960;8.018;2022-09-21T00:34:56;11.90;99.90
6988;DHT22;3534;49.960;8.018;2022-09-21T00:37:23;11.90;99.90
6988;DHT22;3534;49.960;8.018;2022-09-21T00:39:50;11.90;99.90
6988;DHT22;3534;49.960;8.018;2022-09-21T00:42:18;11.80;99.90
6988;DHT22;3534;49.960;8.018;2022-09-21T00:44:46;11.80;99.90
6988;DHT22;3534;49.960;8.018;2022-09-21T00:47:16;11.80;99.90
6988;DHT22;3534;49.960;8.018;2022-09-21T00:49:46;11.80;99.90
6988;DHT22;3534;49.960;8.018;2022-09-21T00:52:15;11.80;99.90
6988;DHT22;3534;49.960;8.018;2022-09-21T00:54:47;11.80;99.90
6988;DHT22;3534;49.960;8.018;2022-09-21T00:57:17;11.80;99.90
6988;DHT22;3534;49.960;8.018;2022-09-21T00:59:46;11.80;99.90
6988;DHT22;3534;49.960;8.018;2022-09-21T01:02:16;11.80;99.90
6988;DHT22;3534;49.960;8.018;2022-09-21T01:04:43;11.80;99.90
6988;DHT22;3534;49.960;8.018;2022-09-21T01:07:13;11.80;99.90
6988;DHT22;3534;49.960;8.018;2022-09-21T01:09:42;11.80;99.90
6988;DHT22;3534;49.960;8.018;2022-09-21T01:12:21;11.70;99.90
6988;DHT22;3534;49.960;8.018;2022-09-21T01:15:04;11.80;99.90
6988;DHT22;3534;49.960;8.018;2022-09-21T01:17:41;11.80;99.90
6988;DHT22;3534;49.960;8.018;2022-09-21T01:20:40;11.80;99.90
6988;DHT22;3534;49.960;8.018;2022-09-21T01:23:46;11.80;99.90
6988;DHT22;3534;49.960;8.018;2022-09-21T01:26:25;11.80;99.90
6988;DHT22;3534;49.960;8.018;2022-09-21T01:29:19;11.80;99.90
6988;DHT22;3534;49.960;8.018;2022-09-21T01:31:50;11.80;99.90
6988;DHT22;3534;49.960;8.018;2022-09-21T01:34:24;11.80;99.90
6988;DHT22;3534;49.960;8.018;2022-09-21T01:36:54;11.80;99.90
6988;DHT22;3534;49.960;8.018;2022-09-21T01:39:22;11.80;99.90
6988;DHT22;3534;49.960;8.018;2022-09-21T01:41:51;11.80;99.90
6988;DHT22;3534;49.960;8.018;2022-09-21T01:44:22;11.80;99.90
6988;DHT22;3534;49.960;8.018;2022-09-21T01:46:50;11.70;99.90
6988;DHT22;3534;49.960;8.018;2022-09-21T01:49:22;11.80;99.90
6988;DHT22;3534;49.960;8.018;2022-09-21T01:51:54;11.70;99.90
6988;DHT22;3534;49.960;8.018;2022-09-21T01:54:24;11.70;99.90
6988;DHT22;3534;49.960;8.018;2022-09-21T01:56:58;11.70;99.90
6988;DHT22;3534;49.960;8.018;2022-09-21T01:59:35;11.70;99.90
6988;DHT22;3534;49.960;8.018;2022-09-21T02:02:07;11.70;99.90
6988;DHT22;3534;49.960;8.018;2022-09-21T02:04:34;11.60;99.90
6988;DHT22;3534;49.960;8.018;2022-09-21T02:07:02;11.60;99.90
6988;DHT22;3534;49.960;8.018;2022-09-21T02:09:29;11.60;99.90
6988;DHT22;3534;49.960;8.018;2022-09-21T02:11:55;11.60;99.90
6988;DHT22;3534;49.960;8.018;2022-09-21T02:14:23;11.50;99.90
6988;DHT22;3534;49.960;8.018;2022-09-21T02:17:00;11.50;99.90
6988;DHT22;3534;49.960;8.018;2022-09-21T02:19:43;11.50;99.90
6988;DHT22;3534;49.960;8.018;2022-09-21T02:22:14;11.40;99.90
6988;DHT22;3534;49.960;8.018;2022-09-21T02:24:44;11.40;99.90
6988;DHT22;3534;49.960;8.018;2022-09-21T02:27:21;11.40;99.90
6988;DHT22;3534;49.960;8.018;2022-09-21T02:29:51;11.40;99.90
6988;DHT22;3534;49.960;8.018;2022-09-21T02:32:27;11.40;99.90
6988;DHT22;3534;49.960;8.018;2022-09-21T02:35:07;11.30;99.90
6988;DHT22;3534;49.960;8.018;2022-09-21T02:37:45;11.30;99.90
6988;DHT22;3534;49.960;8.018;2022-09-21T02:40:20;11.30;99.90
6988;DHT22;3534;49.960;8.018;2022-09-21T02:42:51;11.30;99.90
6988;DHT22;3534;49.960;8.018;2022-09-21T02:45:23;11.20;99.90
6988;DHT22;3534;49.960;8.018;2022-09-21T02:47:56;11.20;99.90
6988;DHT22;3534;49.960;8.018;2022-09-21T02:50:28;11.20;99.90
6988;DHT22;3534;49.960;8.018;2022-09-21T02:52:58;11.10;99.90
6988;DHT22;3534;49.960;8.018;2022-09-21T02:55:27;11.10;99.90
6988;DHT22;3534;49.960;8.018;2022-09-21T02:57:54;11.10;99.90
6988;DHT22;3534;49.960;8.018;2022-09-21T03:00:21;11.00;99.90
6988;DHT22;3534;49.960;8.018;2022-09-21T03:02:48;11.00;99.90
6988;DHT22;3534;49.960;8.018;2022-09-21T03:05:16;11.00;99.90
6988;DHT22;3534;49.960;8.018;2022-09-21T03:07:42;11.00;99.90
6988;DHT22;3534;49.960;8.018;2022-09-21T03:10:09;10.90;99.90
6988;DHT22;3534;49.960;8.018;2022-09-21T03:12:36;10.90;99.90
6988;DHT22;3534;49.960;8.018;2022-09-21T03:15:04;10.90;99.90
6988;DHT22;3534;49.960;8.018;2022-09-21T03:17:31;10.80;99.90
6988;DHT22;3534;49.960;8.018;2022-09-21T03:19:57;10.80;99.90
6988;DHT22;3534;49.960;8.018;2022-09-21T03:22:25;10.80;99.90
6988;DHT22;3534;49.960;8.018;2022-09-21T03:24:52;10.80;99.90
6988;DHT22;3534;49.960;8.018;2022-09-21T03:27:22;10.80;99.90
6988;DHT22;3534;49.960;8.018;2022-09-21T03:29:49;10.70;99.90
6988;DHT22;3534;49.960;8.018;2022-09-21T03:32:16;10.70;99.90
6988;DHT22;3534;49.960;8.018;2022-09-21T03:34:42;10.70;99.90
6988;DHT22;3534;49.960;8.018;2022-09-21T03:37:09;10.60;99.90
6988;DHT22;3534;49.960;8.018;2022-09-21T03:39:37;10.60;99.90
6988;DHT22;3534;49.960;8.018;2022-09-21T03:42:04;10.60;99.90
6988;DHT22;3534;49.960;8.018;2022-09-21T03:44:32;10.60;99.90
6988;DHT22;3534;49.960;8.018;2022-09-21T03:46:58;10.60;99.90
6988;DHT22;3534;49.960;8.018;2022-09-21T03:49:25;10.60;99.90
6988;DHT22;3534;49.960;8.018;2022-09-21T03:51:52;10.60;99.90
6988;DHT22;3534;49.960;8.018;2022-09-21T03:54:20;10.60;99.90
6988;DHT22;3534;49.960;8.018;2022-09-21T03:56:48;10.60;99.90
6988;DHT22;3534;49.960;8.018;2022-09-21T03:59:15;10.60;99.90
6988;DHT22;3534;49.960;8.018;2022-09-21T04:01:41;10.60;99.90
6988;DHT22;3534;49.960;8.018;2022-09-21T04:04:08;10.60;99.90
6988;DHT22;3534;49.960;8.018;2022-09-21T04:06:35;10.60;99.90
6988;DHT22;3534;49.960;8.018;2022-09-21T04:09:02;10.50;99.90
6988;DHT22;3534;49.960;8.018;2022-09-21T04:11:29;10.50;99.90
6988;DHT22;3534;49.960;8.018;2022-09-21T04:13:59;10.50;99.90
6988;DHT22;3534;49.960;8.018;2022-09-21T04:16:26;10.50;99.90
6988;DHT22;3534;49.960;8.018;2022-09-21T04:18:53;10.40;99.90
6988;DHT22;3534;49.960;8.018;2022-09-21T04:21:20;10.40;99.90
6988;DHT22;3534;49.960;8.018;2022-09-21T04:23:47;10.40;99.90
6988;DHT22;3534;49.960;8.018;2022-09-21T04:26:22;10.40;99.90
6988;DHT22;3534;49.960;8.018;2022-09-21T04:28:49;10.30;99.90
6988;DHT22;3534;49.960;8.018;2022-09-21T04:31:17;10.30;99.90
6988;DHT22;3534;49.960;8.018;2022-09-21T04:33:47;10.30;99.90
6988;DHT22;3534;49.960;8.018;2022-09-21T04:36:13;10.30;99.90
6988;DHT22;3534;49.960;8.018;2022-09-21T04:38:40;10.20;99.90
6988;DHT22;3534;49.960;8.018;2022-09-21T04:41:07;10.20;99.90
6988;DHT22;3534;49.960;8.018;2022-09-21T04:43:33;10.20;99.90
6988;DHT22;3534;49.960;8.018;2022-09-21T04:46:04;10.20;99.90
6988;DHT22;3534;49.960;8.018;2022-09-21T04:48:32;10.20;99.90
6988;DHT22;3534;49.960;8.018;2022-09-21T04:50:59;10.20;99.90
6988;DHT22;3534;49.960;8.018;2022-09-21T04:53:26;10.20;99.90
6988;DHT22;3534;49.960;8.018;2022-09-21T04:55:53;10.20;99.90
6988;DHT22;3534;49.960;8.018;2022-09-21T04:58:20;10.20;99.90
6988;DHT22;3534;49.960;8.018;2022-09-21T05:00:48;10.20;99.90
6988;DHT22;3534;49.960;8.018;2022-09-21T05:03:15;10.10;99.90
6988;DHT22;3534;49.960;8.018;2022-09-21T05:05:46;10.20;99.90
6988;DHT22;3534;49.960;8.018;2022-09-21T05:08:14;10.10;99.90
6988;DHT22;3534;49.960;8.018;2022-09-21T05:10:41;10.10;99.90
6988;DHT22;3534;49.960;8.018;2022-09-21T05:13:07;10.10;99.90
6988;DHT22;3534;49.960;8.018;2022-09-21T05:15:36;10.10;99.90
6988;DHT22;3534;49.960;8.018;2022-09-21T05:18:03;10.10;99.90
6988;DHT22;3534;49.960;8.018;2022-09-21T05:20:29;10.10;99.90
6988;DHT22;3534;49.960;8.018;2022-09-21T05:22:59;10.00;99.90
6988;DHT22;3534;49.960;8.018;2022-09-21T05:25:27;10.00;99.90
6988;DHT22;3534;49.960;8.018;2022-09-21T05:27:53;10.00;99.90
6988;DHT22;3534;49.960;8.018;2022-09-21T05:30:21;10.10;99.90
6988;DHT22;3534;49.960;8.018;2022-09-21T05:32:55;10.10;99.90
6988;DHT22;3534;49.960;8.018;2022-09-21T05:35:27;10.00;99.90
6988;DHT22;3534;49.960;8.018;2022-09-21T05:38:02;10.00;99.90
6988;DHT22;3534;49.960;8.018;2022-09-21T05:40:31;10.00;99.90
6988;DHT22;3534;49.960;8.018;2022-09-21T05:42:58;10.00;99.90
6988;DHT22;3534;49.960;8.018;2022-09-21T05:45:25;10.00;99.90
6988;DHT22;3534;49.960;8.018;2022-09-21T05:47:57;10.00;99.90
6988;DHT22;3534;49.960;8.018;2022-09-21T05:50:48;10.00;99.90
6988;DHT22;3534;49.960;8.018;2022-09-21T05:53:29;10.00;99.90
6988;DHT22;3534;49.960;8.018;2022-09-21T05:56:01;10.00;99.90
6988;DHT22;3534;49.960;8.018;2022-09-21T05:58:35;10.00;99.90
6988;DHT22;3534;49.960;8.018;2022-09-21T06:01:16;10.10;99.90
6988;DHT22;3534;49.960;8.018;2022-09-21T06:03:45;10.10;99.90
6988;DHT22;3534;49.960;8.018;2022-09-21T06:06:14;10.10;99.90
6988;DHT22;3534;49.960;8.018;2022-09-21T06:08:42;10.10;99.90
6988;DHT22;3534;49.960;8.018;2022-09-21T06:11:09;10.20;99.90
6988;DHT22;3534;49.960;8.018;2022-09-21T06:13:36;10.20;99.90
6988;DHT22;3534;49.960;8.018;2022-09-21T06:16:04;10.20;99.90
6988;DHT22;3534;49.960;8.018;2022-09-21T06:18:30;10.20;99.90
6988;DHT22;3534;49.960;8.018;2022-09-21T06:20:57;10.30;99.90
6988;DHT22;3534;49.960;8.018;2022-09-21T06:23:24;10.30;99.90
6988;DHT22;3534;49.960;8.018;2022-09-21T06:25:52;10.40;99.90
6988;DHT22;3534;49.960;8.018;2022-09-21T06:28:19;10.40;99.90
6988;DHT22;3534;49.960;8.018;2022-09-21T06:30:50;10.40;99.90
6988;DHT22;3534;49.960;8.018;2022-09-21T06:33:17;10.40;99.90
6988;DHT22;3534;49.960;8.018;2022-09-21T06:35:51;10.50;99.90
6988;DHT22;3534;49.960;8.018;2022-09-21T06:38:18;10.50;99.90
6988;DHT22;3534;49.960;8.018;2022-09-21T06:40:44;10.50;99.90
6988;DHT22;3534;49.960;8.018;2022-09-21T06:43:12;10.60;99.90
6988;DHT22;3534;49.960;8.018;2022-09-21T06:45:39;10.60;99.90
6988;DHT22;3534;49.960;8.018;2022-09-21T06:48:06;10.60;99.90
6988;DHT22;3534;49.960;8.018;2022-09-21T06:50:32;10.70;99.90
6988;DHT22;3534;49.960;8.018;2022-09-21T06:52:59;10.70;99.90
6988;DHT22;3534;49.960;8.018;2022-09-21T06:55:26;10.70;99.90
6988;DHT22;3534;49.960;8.018;2022-09-21T06:57:58;10.70;99.90
6988;DHT22;3534;49.960;8.018;2022-09-21T07:00:26;10.80;99.90
6988;DHT22;3534;49.960;8.018;2022-09-21T07:02:53;10.80;99.90
6988;DHT22;3534;49.960;8.018;2022-09-21T07:05:20;10.80;99.90
6988;DHT22;3534;49.960;8.018;2022-09-21T07:07:46;10.80;99.90
6988;DHT22;3534;49.960;8.018;2022-09-21T07:10:13;10.90;99.90
6988;DHT22;3534;49.960;8.018;2022-09-21T07:12:40;10.90;99.90
6988;DHT22;3534;49.960;8.018;2022-09-21T07:15:08;10.90;99.90
6988;DHT22;3534;49.960;8.018;2022-09-21T07:17:38;11.00;99.90
6988;DHT22;3534;49.960;8.018;2022-09-21T07:20:06;10.90;99.90
6988;DHT22;3534;49.960;8.018;2022-09-21T07:22:33;10.80;99.90
6988;DHT22;3534;49.960;8.018;2022-09-21T07:25:00;10.80;99.90
6988;DHT22;3534;49.960;8.018;2022-09-21T07:27:28;10.80;99.90
6988;DHT22;3534;49.960;8.018;2022-09-21T07:29:55;10.60;99.90
6988;DHT22;3534;49.960;8.018;2022-09-21T07:32:22;10.60;99.90
6988;DHT22;3534;49.960;8.018;2022-09-21T07:34:51;10.70;99.90
6988;DHT22;3534;49.960;8.018;2022-09-21T07:37:21;10.80;99.90
6988;DHT22;3534;49.960;8.018;2022-09-21T07:39:49;10.80;99.90
6988;DHT22;3534;49.960;8.018;2022-09-21T07:42:16;10.90;99.90
6988;DHT22;3534;49.960;8.018;2022-09-21T07:44:44;11.00;99.90
6988;DHT22;3534;49.960;8.018;2022-09-21T07:47:11;11.00;99.90
6988;DHT22;3534;49.960;8.018;2022-09-21T07:49:38;11.00;99.90
6988;DHT22;3534;49.960;8.018;2022-09-21T07:52:06;11.00;99.90
6988;DHT22;3534;49.960;8.018;2022-09-21T07:54:34;11.00;99.90
6988;DHT22;3534;49.960;8.018;2022-09-21T07:57:01;11.10;99.90
6988;DHT22;3534;49.960;8.018;2022-09-21T07:59:46;11.10;99.90
6988;DHT22;3534;49.960;8.018;2022-09-21T08:02:12;11.20;99.90
6988;DHT22;3534;49.960;8.018;2022-09-21T08:04:39;11.20;99.90
6988;DHT22;3534;49.960;8.018;2022-09-21T08:07:07;11.20;99.90
6988;DHT22;3534;49.960;8.018;2022-09-21T08:09:34;11.30;99.90
6988;DHT22;3534;49.960;8.018;2022-09-21T08:12:01;11.40;99.90
6988;DHT22;3534;49.960;8.018;2022-09-21T08:14:27;11.50;99.90
6988;DHT22;3534;49.960;8.018;2022-09-21T08:16:54;11.50;99.90
6988;DHT22;3534;49.960;8.018;2022-09-21T08:19:21;11.50;99.90
6988;DHT22;3534;49.960;8.018;2022-09-21T08:21:50;11.60;99.90
6988;DHT22;3534;49.960;8.018;2022-09-21T08:24:18;11.60;99.90
6988;DHT22;3534;49.960;8.018;2022-09-21T08:26:45;11.60;99.90
6988;DHT22;3534;49.960;8.018;2022-09-21T08:29:12;11.70;99.90
6988;DHT22;3534;49.960;8.018;2022-09-21T08:31:40;11.60;99.90
6988;DHT22;3534;49.960;8.018;2022-09-21T08:34:07;11.60;99.90
6988;DHT22;3534;49.960;8.018;2022-09-21T08:36:34;11.70;99.90
6988;DHT22;3534;49.960;8.018;2022-09-21T08:39:01;11.70;99.90
6988;DHT22;3534;49.960;8.018;2022-09-21T08:41:41;11.80;99.90
6988;DHT22;3534;49.960;8.018;2022-09-21T08:44:14;11.80;99.90
6988;DHT22;3534;49.960;8.018;2022-09-21T08:46:42;11.80;99.90
6988;DHT22;3534;49.960;8.018;2022-09-21T08:49:12;11.80;99.90
6988;DHT22;3534;49.960;8.018;2022-09-21T08:51:45;11.90;99.90
6988;DHT22;3534;49.960;8.018;2022-09-21T08:54:18;12.00;99.90
6988;DHT22;3534;49.960;8.018;2022-09-21T08:56:48;12.10;99.90
6988;DHT22;3534;49.960;8.018;2022-09-21T08:59:15;12.10;99.90
6988;DHT22;3534;49.960;8.018;2022-09-21T09:01:52;12.20;99.90
6988;DHT22;3534;49.960;8.018;2022-09-21T09:04:30;12.30;99.90
6988;DHT22;3534;49.960;8.018;2022-09-21T09:07:08;12.40;99.90
6988;DHT22;3534;49.960;8.018;2022-09-21T09:09:49;12.50;99.90
6988;DHT22;3534;49.960;8.018;2022-09-21T09:12:41;12.60;99.90
6988;DHT22;3534;49.960;8.018;2022-09-21T09:15:35;12.70;99.90
6988;DHT22;3534;49.960;8.018;2022-09-21T09:18:08;12.80;99.90
6988;DHT22;3534;49.960;8.018;2022-09-21T09:20:40;12.80;99.90
6988;DHT22;3534;49.960;8.018;2022-09-21T09:23:11;12.90;99.90
6988;DHT22;3534;49.960;8.018;2022-09-21T09:25:41;13.00;99.90
6988;DHT22;3534;49.960;8.018;2022-09-21T09:28:19;13.10;99.90
6988;DHT22;3534;49.960;8.018;2022-09-21T09:30:51;13.10;99.90
6988;DHT22;3534;49.960;8.018;2022-09-21T09:33:22;13.20;99.90
6988;DHT22;3534;49.960;8.018;2022-09-21T09:35:54;13.30;99.90
6988;DHT22;3534;49.960;8.018;2022-09-21T09:38:25;13.40;99.90
6988;DHT22;3534;49.960;8.018;2022-09-21T09:44:01;13.50;99.90
6988;DHT22;3534;49.960;8.018;2022-09-21T09:46:31;13.50;99.90
6988;DHT22;3534;49.960;8.018;2022-09-21T09:49:12;13.60;99.90
6988;DHT22;3534;49.960;8.018;2022-09-21T09:51:40;13.60;99.90
6988;DHT22;3534;49.960;8.018;2022-09-21T09:54:12;13.70;99.90
6988;DHT22;3534;49.960;8.018;2022-09-21T09:56:39;13.80;99.90
6988;DHT22;3534;49.960;8.018;2022-09-21T09:59:13;13.80;99.90
6988;DHT22;3534;49.960;8.018;2022-09-21T10:01:45;13.90;99.90
6988;DHT22;3534;49.960;8.018;2022-09-21T10:04:14;14.00;99.90
6988;DHT22;3534;49.960;8.018;2022-09-21T10:06:41;14.10;99.90
6988;DHT22;3534;49.960;8.018;2022-09-21T10:09:21;14.10;99.90
6988;DHT22;3534;49.960;8.018;2022-09-21T10:11:49;14.20;99.90
6988;DHT22;3534;49.960;8.018;2022-09-21T10:14:21;14.30;99.90
6988;DHT22;3534;49.960;8.018;2022-09-21T10:16:50;14.30;99.90
6988;DHT22;3534;49.960;8.018;2022-09-21T10:19:20;14.40;99.90
6988;DHT22;3534;49.960;8.018;2022-09-21T10:21:51;14.40;99.90
6988;DHT22;3534;49.960;8.018;2022-09-21T10:24:21;14.50;99.90
6988;DHT22;3534;49.960;8.018;2022-09-21T10:26:50;14.50;99.90
6988;DHT22;3534;49.960;8.018;2022-09-21T10:29:29;14.60;99.90
6988;DHT22;3534;49.960;8.018;2022-09-21T10:31:58;14.70;99.90
6988;DHT22;3534;49.960;8.018;2022-09-21T10:34:26;14.70;99.90
6988;DHT22;3534;49.960;8.018;2022-09-21T10:36:55;14.80;99.90
6988;DHT22;3534;49.960;8.018;2022-09-21T10:39:25;14.90;99.90
6988;DHT22;3534;49.960;8.018;2022-09-21T10:41:57;15.00;99.90
6988;DHT22;3534;49.960;8.018;2022-09-21T10:44:32;15.10;99.90
6988;DHT22;3534;49.960;8.018;2022-09-21T10:47:12;15.20;99.90
6988;DHT22;3534;49.960;8.018;2022-09-21T10:49:44;15.30;99.90
6988;DHT22;3534;49.960;8.018;2022-09-21T10:52:11;15.30;99.90
6988;DHT22;3534;49.960;8.018;2022-09-21T10:54:39;15.40;99.90
6988;DHT22;3534;49.960;8.018;2022-09-21T10:57:09;15.50;99.90
6988;DHT22;3534;49.960;8.018;2022-09-21T10:59:41;15.60;99.90
6988;DHT22;3534;49.960;8.018;2022-09-21T11:02:25;15.60;99.90
6988;DHT22;3534;49.960;8.018;2022-09-21T11:04:57;15.70;99.90
6988;DHT22;3534;49.960;8.018;2022-09-21T11:07:28;15.80;99.90
6988;DHT22;3534;49.960;8.018;2022-09-21T11:10:02;15.90;99.90
6988;DHT22;3534;49.960;8.018;2022-09-21T11:12:40;16.00;99.90
6988;DHT22;3534;49.960;8.018;2022-09-21T11:15:19;16.10;99.90
6988;DHT22;3534;49.960;8.018;2022-09-21T11:17:50;16.20;99.90
6988;DHT22;3534;49.960;8.018;2022-09-21T11:20:27;16.30;99.90
6988;DHT22;3534;49.960;8.018;2022-09-21T11:23:02;16.60;99.90
6988;DHT22;3534;49.960;8.018;2022-09-21T11:25:34;16.70;99.90
6988;DHT22;3534;49.960;8.018;2022-09-21T11:28:10;16.90;99.90
6988;DHT22;3534;49.960;8.018;2022-09-21T11:30:59;17.10;99.90
6988;DHT22;3534;49.960;8.018;2022-09-21T11:33:41;17.30;99.90
6988;DHT22;3534;49.960;8.018;2022-09-21T11:36:16;17.50;99.90
6988;DHT22;3534;49.960;8.018;2022-09-21T11:38:53;17.80;99.90
6988;DHT22;3534;49.960;8.018;2022-09-21T11:41:53;18.00;99.90
6988;DHT22;3534;49.960;8.018;2022-09-21T11:44:34;18.20;99.90
6988;DHT22;3534;49.960;8.018;2022-09-21T11:47:13;18.40;99.90
6988;DHT22;3534;49.960;8.018;2022-09-21T11:49:58;18.50;99.90
6988;DHT22;3534;49.960;8.018;2022-09-21T11:52:37;18.80;99.90
6988;DHT22;3534;49.960;8.018;2022-09-21T11:55:18;19.20;99.90
6988;DHT22;3534;49.960;8.018;2022-09-21T11:57:53;19.50;99.90
6988;DHT22;3534;49.960;8.018;2022-09-21T12:00:22;19.60;99.90
6988;DHT22;3534;49.960;8.018;2022-09-21T12:03:29;19.90;99.90
6988;DHT22;3534;49.960;8.018;2022-09-21T12:06:09;20.20;99.90
6988;DHT22;3534;49.960;8.018;2022-09-21T12:08:49;20.40;99.90
6988;DHT22;3534;49.960;8.018;2022-09-21T12:11:29;20.50;99.90
6988;DHT22;3534;49.960;8.018;2022-09-21T12:14:01;20.60;99.90
6988;DHT22;3534;49.960;8.018;2022-09-21T12:16:35;20.50;99.90
6988;DHT22;3534;49.960;8.018;2022-09-21T12:19:12;20.60;99.90
6988;DHT22;3534;49.960;8.018;2022-09-21T12:21:43;20.80;99.90
6988;DHT22;3534;49.960;8.018;2022-09-21T12:24:14;21.10;99.90
6988;DHT22;3534;49.960;8.018;2022-09-21T12:26:46;21.50;99.90
6988;DHT22;3534;49.960;8.018;2022-09-21T12:29:21;22.00;99.90
6988;DHT22;3534;49.960;8.018;2022-09-21T12:31:55;22.50;99.90
6988;DHT22;3534;49.960;8.018;2022-09-21T12:34:28;22.80;99.90
6988;DHT22;3534;49.960;8.018;2022-09-21T12:37:03;23.10;99.90
6988;DHT22;3534;49.960;8.018;2022-09-21T12:39:38;23.40;99.90
6988;DHT22;3534;49.960;8.018;2022-09-21T12:42:25;23.60;99.90
6988;DHT22;3534;49.960;8.018;2022-09-21T12:44:55;23.90;99.90
6988;DHT22;3534;49.960;8.018;2022-09-21T12:47:27;24.00;99.90
6988;DHT22;3534;49.960;8.018;2022-09-21T12:50:02;23.70;97.80
6988;DHT22;3534;49.960;8.018;2022-09-21T12:52:31;23.70;99.90
6988;DHT22;3534;49.960;8.018;2022-09-21T12:55:05;23.90;99.90
6988;DHT22;3534;49.960;8.018;2022-09-21T12:57:48;24.30;99.90
6988;DHT22;3534;49.960;8.018;2022-09-21T13:00:18;24.70;97.10
6988;DHT22;3534;49.960;8.018;2022-09-21T13:02:50;25.00;99.90
6988;DHT22;3534;49.960;8.018;2022-09-21T13:05:29;25.30;96.10
6988;DHT22;3534;49.960;8.018;2022-09-21T13:08:03;25.40;93.20
6988;DHT22;3534;49.960;8.018;2022-09-21T13:10:40;25.50;99.70
6988;DHT22;3534;49.960;8.018;2022-09-21T13:13:18;25.20;99.90
6988;DHT22;3534;49.960;8.018;2022-09-21T13:15:48;25.20;92.00
6988;DHT22;3534;49.960;8.018;2022-09-21T13:18:18;25.30;99.90
6988;DHT22;3534;49.960;8.018;2022-09-21T13:20:48;25.60;99.90
6988;DHT22;3534;49.960;8.018;2022-09-21T13:23:19;26.00;95.90
6988;DHT22;3534;49.960;8.018;2022-09-21T13:25:49;26.40;91.70
6988;DHT22;3534;49.960;8.018;2022-09-21T13:28:39;26.80;87.90
6988;DHT22;3534;49.960;8.018;2022-09-21T13:31:39;27.20;85.50
6988;DHT22;3534;49.960;8.018;2022-09-21T13:34:20;27.50;90.40
6988;DHT22;3534;49.960;8.018;2022-09-21T13:43:22;28.20;78.60
6988;DHT22;3534;49.960;8.018;2022-09-21T13:45:54;28.60;74.40
6988;DHT22;3534;49.960;8.018;2022-09-21T13:48:24;28.80;72.00
6988;DHT22;3534;49.960;8.018;2022-09-21T13:51:06;29.10;70.90
6988;DHT22;3534;49.960;8.018;2022-09-21T13:53:37;29.20;70.00
6988;DHT22;3534;49.960;8.018;2022-09-21T13:56:13;29.20;69.90
6988;DHT22;3534;49.960;8.018;2022-09-21T13:58:44;29.40;71.60
6988;DHT22;3534;49.960;8.018;2022-09-21T14:01:15;29.40;70.20
6988;DHT22;3534;49.960;8.018;2022-09-21T14:03:44;29.40;71.80
6988;DHT22;3534;49.960;8.018;2022-09-21T14:06:15;29.60;82.20
6988;DHT22;3534;49.960;8.018;2022-09-21T14:08:48;29.60;83.10
6988;DHT22;3534;49.960;8.018;2022-09-21T14:11:19;29.60;79.90
6988;DHT22;3534;49.960;8.018;2022-09-21T14:14:01;29.40;73.10
6988;DHT22;3534;49.960;8.018;2022-09-21T14:17:02;29.20;78.40
6988;DHT22;3534;49.960;8.018;2022-09-21T14:20:04;29.20;69.10
6988;DHT22;3534;49.960;8.018;2022-09-21T14:22:34;29.20;72.70
6988;DHT22;3534;49.960;8.018;2022-09-21T14:25:45;29.40;73.20
6988;DHT22;3534;49.960;8.018;2022-09-21T14:28:14;29.60;80.10
6988;DHT22;3534;49.960;8.018;2022-09-21T14:30:48;29.80;66.90
6988;DHT22;3534;49.960;8.018;2022-09-21T14:33:25;30.10;64.20
6988;DHT22;3534;49.960;8.018;2022-09-21T14:35:54;30.30;67.50
6988;DHT22;3534;49.960;8.018;2022-09-21T14:38:24;30.40;72.80
6988;DHT22;3534;49.960;8.018;2022-09-21T14:40:56;30.50;75.30
6988;DHT22;3534;49.960;8.018;2022-09-21T14:43:28;30.80;63.10
6988;DHT22;3534;49.960;8.018;2022-09-21T14:46:21;31.00;60.80
6988;DHT22;3534;49.960;8.018;2022-09-21T14:48:58;31.00;59.60
6988;DHT22;3534;49.960;8.018;2022-09-21T14:51:35;30.90;59.40
6988;DHT22;3534;49.960;8.018;2022-09-21T14:54:21;30.80;59.60
6988;DHT22;3534;49.960;8.018;2022-09-21T14:56:59;30.70;69.40
6988;DHT22;3534;49.960;8.018;2022-09-21T14:59:41;30.80;71.00
6988;DHT22;3534;49.960;8.018;2022-09-21T15:02:17;31.00;58.50
6988;DHT22;3534;49.960;8.018;2022-09-21T15:05:03;31.10;60.30
6988;DHT22;3534;49.960;8.018;2022-09-21T15:07:37;31.30;64.70
6988;DHT22;3534;49.960;8.018;2022-09-21T15:10:30;31.50;56.20
6988;DHT22;3534;49.960;8.018;2022-09-21T15:13:41;31.60;59.90
6988;DHT22;3534;49.960;8.018;2022-09-21T15:16:28;31.50;58.80
6988;DHT22;3534;49.960;8.018;2022-09-21T15:19:11;31.60;59.60
6988;DHT22;3534;49.960;8.018;2022-09-21T15:21:41;31.90;57.00
6988;DHT22;3534;49.960;8.018;2022-09-21T15:24:16;32.00;55.20
6988;DHT22;3534;49.960;8.018;2022-09-21T15:26:44;31.90;59.60
6988;DHT22;3534;49.960;8.018;2022-09-21T15:29:23;32.00;54.50
6988;DHT22;3534;49.960;8.018;2022-09-21T15:31:50;32.00;54.20
6988;DHT22;3534;49.960;8.018;2022-09-21T15:34:20;31.80;58.20
6988;DHT22;3534;49.960;8.018;2022-09-21T15:36:48;31.70;55.50
6988;DHT22;3534;49.960;8.018;2022-09-21T15:39:21;31.60;58.00
6988;DHT22;3534;49.960;8.018;2022-09-21T15:42:01;31.50;56.00
6988;DHT22;3534;49.960;8.018;2022-09-21T15:44:34;31.40;53.90
6988;DHT22;3534;49.960;8.018;2022-09-21T15:47:05;31.40;58.00
6988;DHT22;3534;49.960;8.018;2022-09-21T15:49:34;31.30;54.50
6988;DHT22;3534;49.960;8.018;2022-09-21T15:52:09;30.80;54.00
6988;DHT22;3534;49.960;8.018;2022-09-21T15:54:41;30.40;56.90
6988;DHT22;3534;49.960;8.018;2022-09-21T15:57:23;30.00;55.60
6988;DHT22;3534;49.960;8.018;2022-09-21T15:59:50;29.50;63.90
6988;DHT22;3534;49.960;8.018;2022-09-21T16:02:22;29.10;59.30
6988;DHT22;3534;49.960;8.018;2022-09-21T16:04:51;28.70;63.50
6988;DHT22;3534;49.960;8.018;2022-09-21T16:07:28;28.40;59.70
6988;DHT22;3534;49.960;8.018;2022-09-21T16:09:55;28.00;58.00
6988;DHT22;3534;49.960;8.018;2022-09-21T16:12:37;27.60;57.10
6988;DHT22;3534;49.960;8.018;2022-09-21T16:15:07;27.20;57.00
6988;DHT22;3534;49.960;8.018;2022-09-21T16:17:37;26.80;58.70
6988;DHT22;3534;49.960;8.018;2022-09-21T16:20:16;26.50;58.50
6988;DHT22;3534;49.960;8.018;2022-09-21T16:22:46;26.30;58.60
6988;DHT22;3534;49.960;8.018;2022-09-21T16:25:22;26.00;63.40
6988;DHT22;3534;49.960;8.018;2022-09-21T16:27:50;25.80;62.90
6988;DHT22;3534;49.960;8.018;2022-09-21T16:30:42;25.60;62.50
6988;DHT22;3534;49.960;8.018;2022-09-21T16:33:36;25.40;62.30
6988;DHT22;3534;49.960;8.018;2022-09-21T16:36:38;25.20;63.00
6988;DHT22;3534;49.960;8.018;2022-09-21T16:39:09;25.10;62.70
6988;DHT22;3534;49.960;8.018;2022-09-21T16:41:38;24.90;61.20
6988;DHT22;3534;49.960;8.018;2022-09-21T16:44:08;24.70;63.60